Terminal Aerodrome Forecast
Issued by NWS Boston, MA

Home | Current Version | Previous Version | Text Only | Print | Product List | Glossary On
Versions: 1 2 3 4 5 6 7 8 9 10 11 12 13 14 15 16 17 18 19
000
FTUS41 KBOX 310852 AAA
TAFORH
TAF AMD
KORH 310852Z 3109/0106 04004KT P6SM FEW035 OVC050
     FM311600 05005KT P6SM BKN050
     FM010100 06006KT P6SM OVC025
     FM010300 04006KT P6SM OVC015=

USA.gov is the U.S. government's official web portal to all federal, state and local government web resources and services.